createdAt,value
2022-08-18T00:02:06.510Z,4.28
2022-08-18T00:07:09.723Z,4.43
2022-08-18T00:12:13.867Z,5.30
2022-08-18T00:17:13.070Z,7.25
2022-08-18T00:22:16.208Z,5.53
2022-08-18T00:27:15.137Z,5.68
2022-08-18T00:32:15.672Z,4.93
2022-08-18T00:37:16.705Z,5.18
2022-08-18T00:42:27.628Z,5.38
2022-08-18T00:47:41.675Z,4.50
2022-08-18T00:52:43.585Z,4.95
2022-08-18T00:57:44.091Z,5.97
2022-08-18T01:02:46.422Z,4.80
2022-08-18T01:07:50.173Z,5.32
2022-08-18T01:12:51.973Z,4.95
2022-08-18T01:18:08.377Z,6.05
2022-08-18T01:23:14.410Z,5.32
2022-08-18T01:28:14.823Z,4.63
2022-08-18T01:33:13.914Z,4.43
2022-08-18T01:38:14.220Z,5.40
2022-08-18T01:43:13.206Z,4.60
2022-08-18T01:48:12.783Z,4.10
2022-08-18T01:53:13.502Z,4.28
2022-08-18T01:58:13.994Z,4.25
2022-08-18T02:03:16.040Z,3.83
2022-08-18T02:08:16.789Z,4.43
2022-08-18T02:13:15.788Z,4.43
2022-08-18T02:18:32.474Z,4.00
2022-08-18T02:23:40.728Z,4.65
2022-08-18T02:28:50.096Z,4.65
2022-08-18T02:33:52.226Z,4.65
2022-08-18T02:38:58.507Z,4.70
2022-08-18T02:44:00.142Z,4.30
2022-08-18T02:49:00.205Z,4.78
2022-08-18T02:54:00.990Z,5.00
2022-08-18T02:59:04.503Z,4.97
2022-08-18T03:04:04.174Z,5.03
2022-08-18T03:09:05.344Z,4.60
2022-08-18T03:14:05.777Z,4.95
2022-08-18T03:19:08.486Z,4.85
2022-08-18T03:24:10.682Z,4.25
2022-08-18T03:29:12.536Z,4.80
2022-08-18T03:34:11.811Z,4.88
2022-08-18T03:39:14.293Z,5.82
2022-08-18T03:44:14.587Z,5.13
2022-08-18T03:49:13.807Z,5.35
2022-08-18T03:54:16.603Z,4.95
2022-08-18T03:59:18.379Z,4.45
2022-08-18T04:04:19.616Z,5.47
2022-08-18T04:09:20.828Z,5.13
2022-08-18T04:14:24.320Z,5.40
2022-08-18T04:19:27.212Z,5.68
2022-08-18T04:24:31.927Z,6.97
2022-08-18T04:29:31.115Z,6.10
2022-08-18T04:34:30.203Z,6.70
2022-08-18T04:39:38.960Z,6.80
2022-08-18T04:44:46.269Z,6.60
2022-08-18T04:49:46.699Z,6.38
2022-08-18T04:54:48.006Z,6.82
2022-08-18T04:59:50.532Z,5.88
2022-08-18T05:04:50.952Z,7.50
2022-08-18T05:09:55.360Z,8.05
2022-08-18T05:14:57.436Z,7.07
2022-08-18T05:19:57.827Z,6.93
2022-08-18T05:24:59.085Z,7.78
2022-08-18T05:29:58.406Z,6.93
2022-08-18T05:34:57.469Z,8.23
2022-08-18T05:40:05.263Z,7.68
2022-08-18T05:50:12.466Z,6.97
2022-08-18T05:55:36.208Z,7.68
2022-08-18T06:00:37.572Z,8.10
2022-08-18T06:10:43.837Z,8.60
2022-08-18T06:15:50.112Z,9.02
2022-08-18T06:21:21.089Z,8.60
2022-08-18T06:26:32.289Z,6.95
2022-08-18T06:31:42.455Z,6.95
2022-08-18T06:36:51.490Z,6.88
2022-08-18T06:41:53.986Z,7.38
2022-08-18T06:47:00.393Z,9.00
2022-08-18T06:51:59.901Z,6.75
2022-08-18T06:57:01.992Z,8.25
2022-08-18T07:02:12.208Z,7.38
2022-08-18T07:07:18.979Z,7.63
2022-08-18T07:12:32.563Z,2.75
2022-08-18T07:17:43.302Z,4.65
2022-08-18T07:22:59.925Z,7.28
2022-08-18T07:28:03.058Z,3.03
2022-08-18T07:33:12.860Z,8.50
2022-08-18T07:43:52.417Z,7.45
2022-08-18T07:48:52.786Z,8.23
2022-08-18T07:53:59.524Z,7.50
2022-08-18T07:59:11.049Z,8.02
2022-08-18T08:04:25.933Z,7.18
2022-08-18T08:09:40.508Z,7.57
2022-08-18T08:14:46.148Z,7.45
2022-08-18T08:20:00.824Z,6.88
2022-08-18T08:25:17.663Z,6.10
2022-08-18T08:30:34.243Z,5.97
2022-08-18T08:35:49.597Z,7.10
2022-08-18T08:40:55.873Z,6.78
2022-08-18T08:46:08.499Z,6.20
2022-08-18T08:51:30.400Z,5.72
2022-08-18T08:56:34.771Z,6.43
2022-08-18T09:01:43.952Z,7.70
2022-08-18T09:06:55.210Z,6.25
2022-08-18T09:12:38.249Z,5.95
2022-08-18T09:17:57.221Z,6.45
2022-08-18T09:23:06.358Z,5.13
2022-08-18T09:28:13.284Z,5.82
2022-08-18T09:33:34.638Z,4.30
2022-08-18T09:38:56.075Z,4.50
2022-08-18T09:44:11.962Z,3.60
2022-08-18T09:50:37.346Z,4.32
2022-08-18T09:55:29.945Z,5.38
2022-08-18T10:00:33.436Z,4.78
2022-08-18T10:05:36.795Z,5.43
2022-08-18T10:11:01.051Z,4.97
2022-08-18T10:16:17.161Z,5.38
2022-08-18T10:21:22.845Z,5.15
2022-08-18T10:27:14.851Z,5.43
2022-08-18T10:32:36.694Z,4.78
2022-08-18T10:37:40.957Z,4.82
2022-08-18T10:42:46.936Z,5.03
2022-08-18T10:47:59.054Z,5.00
2022-08-18T10:58:42.272Z,4.60
2022-08-18T11:04:13.761Z,5.05
2022-08-18T11:09:23.368Z,4.55
2022-08-18T11:14:50.084Z,4.38
2022-08-18T11:24:57.030Z,4.75
2022-08-18T11:30:00.577Z,5.07
2022-08-18T11:35:06.166Z,4.70
2022-08-18T11:41:02.420Z,4.73
2022-08-18T11:45:56.989Z,4.35
2022-08-18T11:51:03.545Z,7.15
2022-08-18T11:56:18.990Z,4.55
2022-08-18T12:01:51.193Z,5.13
2022-08-18T12:07:04.515Z,5.20
2022-08-18T12:12:08.654Z,5.10
2022-08-18T12:17:13.171Z,6.03
2022-08-18T12:22:17.690Z,4.53
2022-08-18T12:27:22.081Z,4.75
2022-08-18T12:32:49.597Z,4.00
2022-08-18T12:38:13.416Z,3.63
2022-08-18T12:43:11.661Z,5.25
2022-08-18T12:48:10.982Z,4.68
2022-08-18T12:53:12.289Z,4.82
2022-08-18T12:58:13.217Z,5.05
2022-08-18T13:03:12.259Z,5.18
2022-08-18T13:08:30.780Z,5.60
2022-08-18T13:14:32.497Z,5.43
2022-08-18T13:19:33.475Z,5.90
2022-08-18T13:24:34.438Z,4.32
2022-08-18T13:29:34.111Z,5.90
2022-08-18T13:34:38.233Z,5.10
2022-08-18T13:39:54.482Z,6.43
2022-08-18T13:45:22.721Z,7.20
2022-08-18T13:50:29.741Z,7.70
2022-08-18T13:55:30.308Z,6.43
2022-08-18T14:00:31.232Z,7.35
2022-08-18T14:05:36.575Z,5.95
2022-08-18T14:10:52.675Z,6.90
2022-08-18T14:15:54.967Z,8.02
2022-08-18T14:21:14.507Z,6.25
2022-08-18T14:31:30.805Z,6.30
2022-08-18T14:36:34.777Z,6.38
2022-08-18T14:41:35.739Z,6.00
2022-08-18T14:46:40.941Z,5.82
2022-08-18T14:51:43.318Z,5.43
2022-08-18T14:56:42.333Z,5.80
2022-08-18T15:01:43.589Z,5.85
2022-08-18T15:06:56.442Z,4.47
2022-08-18T15:11:59.958Z,4.75
2022-08-18T15:17:00.057Z,5.30
2022-08-18T15:22:18.129Z,5.00
2022-08-18T15:27:19.465Z,5.43
2022-08-18T15:32:19.357Z,5.57
2022-08-18T15:37:24.209Z,8.20
2022-08-18T15:42:23.879Z,5.25
2022-08-18T15:47:25.126Z,5.03
2022-08-18T15:52:26.642Z,5.68
2022-08-18T15:57:39.042Z,5.32
2022-08-18T16:02:39.999Z,5.55
2022-08-18T16:07:45.045Z,6.35
2022-08-18T16:12:46.193Z,6.43
2022-08-18T16:17:47.622Z,6.30
2022-08-18T16:22:53.144Z,5.90
2022-08-18T16:27:55.061Z,5.63
2022-08-18T16:32:55.166Z,5.55
2022-08-18T16:37:58.169Z,6.28
2022-08-18T16:42:58.211Z,5.57
2022-08-18T16:47:57.913Z,6.00
2022-08-18T16:52:59.382Z,6.13
2022-08-18T16:58:16.347Z,6.40
2022-08-18T17:03:34.243Z,6.93
2022-08-18T17:08:36.264Z,6.05
2022-08-18T17:13:37.902Z,7.63
2022-08-18T17:18:39.486Z,5.68
2022-08-18T17:23:42.568Z,6.43
2022-08-18T17:28:52.568Z,6.20
2022-08-18T17:33:55.038Z,6.10
2022-08-18T17:39:00.394Z,5.93
2022-08-18T17:44:03.039Z,6.95
2022-08-18T17:49:13.924Z,6.88
2022-08-18T17:54:24.091Z,6.75
2022-08-18T17:59:45.495Z,6.60
2022-08-18T18:04:49.301Z,7.22
2022-08-18T18:14:56.681Z,7.60
2022-08-18T18:20:00.150Z,7.05
2022-08-18T18:25:07.573Z,7.88
2022-08-18T18:30:13.923Z,7.18
2022-08-18T18:35:17.725Z,7.07
2022-08-18T18:40:25.886Z,6.97
2022-08-18T18:45:28.818Z,6.70
2022-08-18T18:50:34.218Z,6.85
2022-08-18T18:55:47.179Z,6.13
2022-08-18T19:00:55.743Z,6.60
2022-08-18T19:06:14.115Z,6.60
2022-08-18T19:11:22.091Z,6.43
2022-08-18T19:16:29.345Z,6.95
2022-08-18T19:22:01.761Z,6.47
2022-08-18T19:26:53.774Z,6.30
2022-08-18T19:32:02.768Z,6.00
2022-08-18T19:37:08.246Z,6.70
2022-08-18T19:42:17.803Z,5.95
2022-08-18T19:47:23.246Z,8.10
2022-08-18T19:52:47.229Z,6.53
2022-08-18T19:58:03.217Z,7.13
2022-08-18T20:03:33.782Z,6.28
2022-08-18T20:09:03.930Z,6.47
2022-08-18T20:14:05.409Z,6.63
2022-08-18T20:19:26.238Z,8.82
2022-08-18T20:29:47.809Z,10.57
2022-08-18T20:34:51.079Z,7.22
2022-08-18T20:39:54.757Z,7.80
2022-08-18T20:44:59.300Z,8.50
2022-08-18T20:50:14.152Z,7.93
2022-08-18T20:55:21.609Z,7.50
2022-08-18T21:00:27.426Z,6.47
2022-08-18T21:05:29.346Z,7.13
2022-08-18T21:10:30.004Z,6.95
2022-08-18T21:15:35.650Z,6.45
2022-08-18T21:20:35.668Z,5.60
2022-08-18T21:25:34.532Z,7.72
2022-08-18T21:30:35.038Z,6.80
2022-08-18T21:35:38.189Z,6.65
2022-08-18T21:40:40.020Z,7.22
2022-08-18T21:45:47.927Z,6.97
2022-08-18T21:50:52.589Z,6.53
2022-08-18T21:55:52.539Z,5.60
2022-08-18T22:01:13.911Z,6.43
2022-08-18T22:11:59.856Z,5.88
2022-08-18T22:17:28.840Z,6.90
2022-08-18T22:22:49.518Z,6.43
2022-08-18T22:27:51.169Z,6.13
2022-08-18T22:32:51.634Z,6.03
2022-08-18T22:37:50.983Z,6.60
2022-08-18T22:42:50.198Z,6.03
2022-08-18T22:47:49.531Z,5.80
2022-08-18T22:52:50.858Z,5.78
2022-08-18T22:57:49.958Z,6.32
2022-08-18T23:02:49.110Z,5.50
2022-08-18T23:07:49.952Z,6.30
2022-08-18T23:12:49.978Z,5.78
2022-08-18T23:17:49.026Z,6.30
2022-08-18T23:22:49.870Z,6.18
2022-08-18T23:27:48.903Z,5.63
2022-08-18T23:32:48.110Z,5.40
2022-08-18T23:37:47.661Z,6.15
2022-08-18T23:42:51.631Z,6.00
2022-08-18T23:47:51.089Z,6.88
2022-08-18T23:52:56.559Z,5.55
2022-08-18T23:57:57.101Z,5.78
